Time;durP1;ratioP1;P1;durP2;ratioP2;P2;SDS_P1;SDS_P2;PMS_P1;PMS_P2;Temp;Humidity;BMP_temperature;BMP_pressure;BME280_temperature;BME280_humidity;BME280_pressure;Samples;Min_cycle;Max_cycle;Signal;HPM_P1;HPM_P2
2021/05/16 00:00:11;;;;;;;5.90;2.00;;;11.90;99.90;;;;;;5138147;27;20873;-83
2021/05/16 00:02:37;;;;;;;1.47;1.33;;;11.90;99.90;;;;;;5137961;27;20513;-81
2021/05/16 00:05:05;;;;;;;3.83;1.20;;;11.90;99.90;;;;;;5138346;27;20398;-82
2021/05/16 00:07:31;;;;;;;2.90;1.50;;;11.90;99.90;;;;;;5138049;27;20432;-82
2021/05/16 00:09:56;;;;;;;1.30;1.20;;;11.90;99.90;;;;;;5137602;27;20388;-82
2021/05/16 00:12:22;;;;;;;1.93;1.83;;;11.90;99.90;;;;;;5138200;27;20173;-82
2021/05/16 00:14:48;;;;;;;1.60;1.50;;;11.90;99.90;;;;;;5139179;27;20170;-82
2021/05/16 00:17:15;;;;;;;1.97;1.57;;;12.00;99.90;;;;;;5137874;27;20161;-82
2021/05/16 00:19:41;;;;;;;3.00;1.33;;;11.80;99.90;;;;;;5138310;27;20399;-82
2021/05/16 00:22:07;;;;;;;1.20;1.10;;;12.00;99.90;;;;;;5138102;27;20445;-82
2021/05/16 00:24:32;;;;;;;3.87;1.43;;;12.00;99.90;;;;;;5139850;27;20391;-83
2021/05/16 00:26:58;;;;;;;1.70;1.60;;;12.00;99.90;;;;;;5140279;27;20285;-83
2021/05/16 00:29:24;;;;;;;2.83;1.60;;;11.80;99.90;;;;;;5139327;27;20161;-82
2021/05/16 00:31:50;;;;;;;3.27;1.73;;;11.90;99.90;;;;;;5137902;27;20172;-83
2021/05/16 00:34:16;;;;;;;1.37;1.27;;;11.90;99.90;;;;;;5137611;28;20169;-82
2021/05/16 00:36:42;;;;;;;4.50;1.60;;;12.00;99.90;;;;;;5138363;28;20165;-82
2021/05/16 00:39:08;;;;;;;3.60;1.53;;;11.80;99.90;;;;;;5137600;28;20555;-82
2021/05/16 00:41:34;;;;;;;1.40;1.20;;;11.90;99.90;;;;;;5119171;28;20434;-82
2021/05/16 00:44:00;;;;;;;1.70;1.50;;;11.90;99.90;;;;;;5074202;28;20509;-82
2021/05/16 00:46:28;;;;;;;1.60;1.50;;;11.90;99.90;;;;;;5074451;28;20450;-82
2021/05/16 00:48:53;;;;;;;1.47;1.37;;;12.00;99.90;;;;;;5074745;28;20405;-82
2021/05/16 00:51:19;;;;;;;3.00;1.80;;;11.60;99.90;;;;;;5074244;28;20392;-82
2021/05/16 00:53:45;;;;;;;1.63;1.30;;;11.50;99.90;;;;;;5057503;28;20555;-82
2021/05/16 00:56:11;;;;;;;1.97;1.80;;;11.80;99.90;;;;;;5074091;28;20160;-82
2021/05/16 00:58:37;;;;;;;1.73;1.50;;;11.70;99.90;;;;;;5074618;28;20511;-83
2021/05/16 01:01:08;;;;;;;4.67;1.63;;;11.80;99.90;;;;;;5074401;28;20536;-82
2021/05/16 01:03:34;;;;;;;2.27;1.60;;;11.70;99.90;;;;;;5073842;28;20826;-82
2021/05/16 01:06:01;;;;;;;2.40;1.60;;;11.50;99.90;;;;;;5057640;28;20580;-82
2021/05/16 01:08:27;;;;;;;1.80;1.60;;;11.50;99.90;;;;;;5073505;28;20438;-82
2021/05/16 01:10:53;;;;;;;11.33;1.90;;;11.80;99.90;;;;;;5074231;28;20408;-82
2021/05/16 01:13:19;;;;;;;1.80;1.70;;;11.80;99.90;;;;;;5073638;28;20397;-82
2021/05/16 01:15:46;;;;;;;2.00;1.70;;;11.80;99.90;;;;;;5109914;28;20323;-82
2021/05/16 01:18:13;;;;;;;6.20;2.17;;;11.60;99.90;;;;;;5117229;28;20170;-82
2021/05/16 01:20:42;;;;;;;2.03;1.60;;;11.70;99.90;;;;;;5098858;28;20421;-82
2021/05/16 01:23:16;;;;;;;2.53;1.60;;;11.80;99.90;;;;;;5121363;28;20388;-82
2021/05/16 01:25:44;;;;;;;5.33;2.27;;;11.80;99.90;;;;;;5133970;28;20463;-82
2021/05/16 01:28:13;;;;;;;3.77;1.70;;;11.80;99.90;;;;;;5135096;28;20392;-82
2021/05/16 01:30:40;;;;;;;3.73;2.00;;;11.90;99.90;;;;;;5105891;28;20400;-82
2021/05/16 01:33:06;;;;;;;5.33;1.60;;;11.90;99.90;;;;;;5122360;28;20777;-83
2021/05/16 01:35:34;;;;;;;2.07;1.60;;;11.90;99.90;;;;;;5123474;28;20399;-83
2021/05/16 01:38:00;;;;;;;6.30;1.70;;;12.00;99.90;;;;;;5105188;28;20403;-82
2021/05/16 01:40:27;;;;;;;3.00;1.97;;;12.00;99.90;;;;;;5124778;28;20392;-83
2021/05/16 01:42:55;;;;;;;3.10;1.73;;;12.00;99.90;;;;;;5124185;28;20439;-82
2021/05/16 01:45:25;;;;;;;3.63;1.50;;;12.00;99.90;;;;;;5126820;27;20507;-84
2021/05/16 01:47:53;;;;;;;2.90;1.93;;;11.90;99.90;;;;;;5142670;27;20426;-82
2021/05/16 01:50:20;;;;;;;2.57;2.20;;;11.60;99.90;;;;;;5141822;27;20401;-82
2021/05/16 01:52:47;;;;;;;2.80;1.77;;;11.60;99.90;;;;;;5142208;27;20394;-82
2021/05/16 01:55:15;;;;;;;4.23;2.13;;;11.50;99.90;;;;;;5145999;27;20399;-81
2021/05/16 01:57:43;;;;;;;6.30;2.00;;;11.50;99.90;;;;;;5144637;27;20450;-80
2021/05/16 02:00:12;;;;;;;5.53;1.80;;;11.50;99.90;;;;;;5162283;27;20410;-81
2021/05/16 02:02:38;;;;;;;5.43;2.20;;;11.30;99.90;;;;;;5162379;27;20442;-80
2021/05/16 02:05:05;;;;;;;2.17;1.97;;;11.40;99.90;;;;;;5158932;27;20735;-80
2021/05/16 02:07:32;;;;;;;4.93;1.80;;;11.40;99.90;;;;;;5140555;27;20426;-81
2021/05/16 02:09:58;;;;;;;2.90;1.97;;;11.10;99.90;;;;;;5140300;27;20460;-81
2021/05/16 02:12:27;;;;;;;5.20;2.30;;;11.10;99.90;;;;;;5140702;27;20391;-81
2021/05/16 02:14:53;;;;;;;2.73;1.67;;;11.20;99.90;;;;;;5140649;27;20162;-81
2021/05/16 02:17:19;;;;;;;3.33;2.50;;;10.90;99.90;;;;;;5140093;27;20391;-81
2021/05/16 02:19:44;;;;;;;4.37;2.10;;;10.90;99.90;;;;;;5142880;27;20394;-79
2021/05/16 02:22:10;;;;;;;3.50;2.00;;;10.90;99.90;;;;;;5156388;27;20438;-80
2021/05/16 02:24:36;;;;;;;1.70;1.60;;;11.00;99.90;;;;;;5147350;27;20160;-81
2021/05/16 02:27:03;;;;;;;11.17;2.67;;;10.80;99.90;;;;;;5140411;27;20391;-81
2021/05/16 02:29:29;;;;;;;2.03;1.87;;;10.90;99.90;;;;;;5121395;27;20244;-81
2021/05/16 02:31:57;;;;;;;1.53;1.43;;;11.00;99.90;;;;;;5140445;27;20506;-81
2021/05/16 02:34:23;;;;;;;5.90;2.03;;;11.20;99.90;;;;;;5139754;27;20760;-81
2021/05/16 02:36:49;;;;;;;4.13;2.37;;;11.30;99.90;;;;;;5139986;27;20478;-81
2021/05/16 02:39:15;;;;;;;1.90;1.80;;;11.40;99.90;;;;;;5140233;27;20394;-81
2021/05/16 02:41:42;;;;;;;2.10;2.00;;;11.30;99.90;;;;;;5139300;27;20454;-81
2021/05/16 02:44:08;;;;;;;15.07;2.90;;;11.30;99.90;;;;;;5139613;27;20438;-81
2021/05/16 02:46:35;;;;;;;2.87;1.63;;;11.40;99.90;;;;;;5139433;27;20942;-81
2021/05/16 02:49:01;;;;;;;7.30;3.70;;;11.50;99.90;;;;;;5139425;27;20165;-80
2021/05/16 02:51:27;;;;;;;4.00;1.60;;;11.50;99.90;;;;;;5139429;27;20433;-81
2021/05/16 02:53:52;;;;;;;2.00;1.80;;;11.50;99.90;;;;;;5140172;27;20390;-81
2021/05/16 02:56:18;;;;;;;2.30;2.10;;;11.50;99.90;;;;;;5121291;27;20177;-81
2021/05/16 02:58:44;;;;;;;1.87;1.67;;;11.50;99.90;;;;;;5138973;27;20210;-81
2021/05/16 03:01:20;;;;;;;2.10;1.90;;;11.50;99.90;;;;;;5141876;27;20193;-81
2021/05/16 03:03:54;;;;;;;3.83;1.70;;;11.50;99.90;;;;;;5140742;27;20386;-81
2021/05/16 03:06:23;;;;;;;2.97;2.77;;;11.50;99.90;;;;;;5140487;27;20380;-81
2021/05/16 03:08:49;;;;;;;1.73;1.50;;;11.50;99.90;;;;;;5139258;27;20422;-81
2021/05/16 03:11:15;;;;;;;5.33;1.70;;;11.50;99.90;;;;;;5139325;27;20161;-81
2021/05/16 03:13:41;;;;;;;3.50;2.07;;;11.50;99.90;;;;;;5139447;27;20748;-81
2021/05/16 03:16:07;;;;;;;2.07;1.93;;;11.10;99.90;;;;;;5138844;27;20864;-81
2021/05/16 03:18:32;;;;;;;4.50;2.47;;;11.20;99.90;;;;;;5138815;27;20464;-81
2021/05/16 03:20:58;;;;;;;4.47;1.90;;;11.30;99.90;;;;;;5138783;27;20200;-81
2021/05/16 03:23:24;;;;;;;2.50;1.60;;;11.40;99.90;;;;;;5139255;27;20573;-82
2021/05/16 03:25:50;;;;;;;3.83;1.90;;;11.50;99.90;;;;;;5138378;27;20402;-81
2021/05/16 03:28:16;;;;;;;6.87;1.80;;;11.60;99.90;;;;;;5138878;27;20161;-81
2021/05/16 03:30:42;;;;;;;1.30;1.20;;;11.30;99.90;;;;;;5138862;27;20391;-81
2021/05/16 03:33:08;;;;;;;2.43;1.90;;;11.40;99.90;;;;;;5139242;27;20158;-82
2021/05/16 03:35:33;;;;;;;4.10;1.37;;;11.30;99.90;;;;;;5122734;27;20181;-81
2021/05/16 03:37:59;;;;;;;5.00;2.20;;;11.40;99.90;;;;;;5140456;27;20244;-81
2021/05/16 03:40:25;;;;;;;6.53;2.10;;;11.30;99.90;;;;;;5138726;27;20158;-81
2021/05/16 03:42:51;;;;;;;3.37;2.30;;;11.30;99.90;;;;;;5138316;27;20185;-81
2021/05/16 03:45:17;;;;;;;2.90;1.93;;;11.10;99.90;;;;;;5137506;27;20871;-81
2021/05/16 03:47:43;;;;;;;2.20;1.83;;;11.20;99.90;;;;;;5138077;27;20165;-81
2021/05/16 03:50:11;;;;;;;9.00;2.67;;;11.30;99.90;;;;;;5137970;27;20387;-81
2021/05/16 03:52:39;;;;;;;1.67;1.50;;;11.00;99.90;;;;;;5138183;27;20222;-81
2021/05/16 03:55:06;;;;;;;3.90;3.07;;;10.90;99.90;;;;;;5138550;27;20413;-81
2021/05/16 03:57:32;;;;;;;2.77;1.67;;;10.80;99.90;;;;;;5139201;27;20443;-81
2021/05/16 03:59:58;;;;;;;3.40;1.97;;;11.00;99.90;;;;;;5139480;27;20387;-81
2021/05/16 04:02:24;;;;;;;1.97;1.77;;;10.80;99.90;;;;;;5139226;27;20443;-81
2021/05/16 04:04:49;;;;;;;3.80;1.70;;;10.90;99.90;;;;;;5139390;27;20161;-81
2021/05/16 04:07:15;;;;;;;3.30;2.13;;;10.60;99.90;;;;;;5139668;27;20308;-81
2021/05/16 04:09:41;;;;;;;4.43;2.17;;;10.70;99.90;;;;;;5139724;27;20240;-81
2021/05/16 04:12:07;;;;;;;3.17;2.07;;;11.00;99.90;;;;;;5140191;27;20166;-81
2021/05/16 04:14:34;;;;;;;1.93;1.60;;;11.00;99.90;;;;;;5144156;27;20165;-81
2021/05/16 04:16:59;;;;;;;5.53;1.73;;;11.10;99.90;;;;;;5143740;27;20951;-81
2021/05/16 04:19:25;;;;;;;2.87;1.63;;;11.10;99.90;;;;;;5151064;27;20570;-80
2021/05/16 04:21:51;;;;;;;4.20;2.30;;;11.20;99.90;;;;;;5131434;27;20246;-80
2021/05/16 04:24:16;;;;;;;3.53;2.33;;;11.30;99.90;;;;;;5124618;27;20261;-80
2021/05/16 04:26:42;;;;;;;2.90;1.53;;;11.40;99.90;;;;;;5137536;27;20244;-81
2021/05/16 04:29:08;;;;;;;1.73;1.50;;;11.60;99.90;;;;;;5138583;27;20157;-82
2021/05/16 04:31:34;;;;;;;13.57;2.17;;;11.30;99.90;;;;;;5137752;27;20218;-81
2021/05/16 04:34:00;;;;;;;2.60;1.50;;;11.40;99.90;;;;;;5119261;28;20433;-81
2021/05/16 04:36:26;;;;;;;2.13;1.43;;;11.30;99.90;;;;;;5137688;28;20742;-81
2021/05/16 04:38:52;;;;;;;1.90;1.77;;;11.20;99.90;;;;;;5137595;28;20161;-81
2021/05/16 04:41:19;;;;;;;5.53;2.03;;;11.30;99.90;;;;;;5137004;28;20439;-80
2021/05/16 04:43:46;;;;;;;5.30;1.53;;;11.00;99.90;;;;;;5137376;28;20391;-81
2021/05/16 04:46:12;;;;;;;1.60;1.37;;;10.90;99.90;;;;;;5137011;28;20460;-81
2021/05/16 04:48:38;;;;;;;3.10;1.40;;;10.90;99.90;;;;;;5137389;28;20482;-81
2021/05/16 04:51:04;;;;;;;1.70;1.60;;;11.00;99.90;;;;;;5137610;28;20422;-81
2021/05/16 04:53:33;;;;;;;1.80;1.60;;;10.80;99.90;;;;;;5137733;28;20166;-81
2021/05/16 04:56:00;;;;;;;4.10;2.07;;;11.00;99.90;;;;;;5138021;27;20395;-81
2021/05/16 04:58:26;;;;;;;2.03;1.53;;;10.90;99.90;;;;;;5141335;27;20397;-81
2021/05/16 05:00:52;;;;;;;4.10;2.33;;;10.90;99.90;;;;;;5141721;27;20401;-81
2021/05/16 05:03:20;;;;;;;4.27;1.77;;;10.80;99.90;;;;;;5123180;27;20383;-81
2021/05/16 05:05:46;;;;;;;3.20;1.60;;;10.90;99.90;;;;;;5141752;27;20189;-81
2021/05/16 05:08:12;;;;;;;1.80;1.70;;;10.70;99.90;;;;;;5141571;27;20434;-81
2021/05/16 05:10:38;;;;;;;3.73;1.60;;;10.90;99.90;;;;;;5140575;27;20524;-80
2021/05/16 05:13:04;;;;;;;2.23;1.60;;;10.80;99.90;;;;;;5140848;27;20234;-81
2021/05/16 05:15:30;;;;;;;2.60;2.20;;;10.80;99.90;;;;;;5141366;27;20843;-81
2021/05/16 05:17:56;;;;;;;3.07;1.87;;;10.90;99.90;;;;;;5122604;27;20398;-81
2021/05/16 05:20:23;;;;;;;4.63;2.43;;;11.00;99.90;;;;;;5141204;27;20436;-81
2021/05/16 05:22:49;;;;;;;1.90;1.70;;;11.10;99.90;;;;;;5141488;27;20220;-81
2021/05/16 05:25:14;;;;;;;3.53;1.60;;;11.20;99.90;;;;;;5141627;27;20387;-81
2021/05/16 05:27:43;;;;;;;3.30;1.70;;;11.10;99.90;;;;;;5141327;27;20451;-81
2021/05/16 05:30:09;;;;;;;6.77;1.67;;;11.10;99.90;;;;;;5141030;27;20158;-81
2021/05/16 05:32:36;;;;;;;1.60;1.50;;;11.10;99.90;;;;;;5140994;27;20726;-81
2021/05/16 05:35:03;;;;;;;2.70;1.77;;;11.00;99.90;;;;;;5122345;27;20444;-81
2021/05/16 05:37:29;;;;;;;1.70;1.60;;;11.10;99.90;;;;;;5140634;27;20403;-81
2021/05/16 05:39:54;;;;;;;2.90;1.77;;;11.00;99.90;;;;;;5141315;27;20738;-81
2021/05/16 05:42:23;;;;;;;2.83;2.20;;;10.90;99.90;;;;;;5122210;27;20223;-81
2021/05/16 05:44:49;;;;;;;2.03;1.27;;;10.90;99.90;;;;;;5140991;27;20162;-81
2021/05/16 05:47:15;;;;;;;5.90;1.67;;;11.00;99.90;;;;;;5140544;27;20503;-80
2021/05/16 05:49:41;;;;;;;1.57;1.33;;;11.10;99.90;;;;;;5140928;27;20169;-81
2021/05/16 05:52:07;;;;;;;2.17;1.60;;;11.20;99.90;;;;;;5140465;27;20399;-81
2021/05/16 05:54:35;;;;;;;3.00;1.50;;;11.40;99.90;;;;;;5122419;27;20168;-81
2021/05/16 05:57:01;;;;;;;9.50;1.70;;;11.40;99.90;;;;;;5140906;27;20244;-81
2021/05/16 05:59:27;;;;;;;3.17;1.83;;;11.30;99.90;;;;;;5140383;27;20434;-81
2021/05/16 06:01:52;;;;;;;2.07;1.57;;;11.40;99.90;;;;;;5140768;27;20465;-81
2021/05/16 06:04:18;;;;;;;1.73;1.53;;;11.30;99.90;;;;;;5140359;27;20158;-81
2021/05/16 06:06:44;;;;;;;3.13;1.50;;;11.20;99.90;;;;;;5140377;27;20161;-81
2021/05/16 06:09:10;;;;;;;2.80;1.70;;;11.20;99.90;;;;;;5139574;27;20189;-81
2021/05/16 06:11:36;;;;;;;2.40;1.40;;;11.30;99.90;;;;;;5140213;27;20580;-81
2021/05/16 06:14:02;;;;;;;2.70;1.60;;;11.40;99.90;;;;;;5140313;27;20165;-81
2021/05/16 06:16:29;;;;;;;5.03;1.50;;;11.50;99.90;;;;;;5140414;27;20158;-81
2021/05/16 06:18:57;;;;;;;4.03;1.47;;;11.30;99.90;;;;;;5140073;27;20391;-81
2021/05/16 06:21:23;;;;;;;2.87;1.70;;;11.50;99.90;;;;;;5140058;27;20446;-82
2021/05/16 06:24:02;;;;;;;5.20;1.90;;;11.60;99.90;;;;;;5140232;27;20902;-81
2021/05/16 06:26:31;;;;;;;3.53;1.97;;;11.60;99.90;;;;;;5123941;27;20725;-82
2021/05/16 06:28:57;;;;;;;2.13;1.40;;;11.70;99.90;;;;;;5140225;27;20431;-81
2021/05/16 06:31:23;;;;;;;2.40;1.67;;;11.90;99.90;;;;;;5139762;27;20923;-81
2021/05/16 06:33:50;;;;;;;3.10;1.60;;;11.90;99.90;;;;;;5140616;27;20321;-81
2021/05/16 06:36:16;;;;;;;1.70;1.50;;;12.10;99.90;;;;;;5122096;27;20398;-82
2021/05/16 06:38:42;;;;;;;1.37;1.27;;;12.30;99.90;;;;;;5140188;27;20450;-81
2021/05/16 06:41:08;;;;;;;1.40;1.30;;;11.90;99.90;;;;;;5140722;27;20444;-82
2021/05/16 06:43:34;;;;;;;1.97;1.50;;;11.80;99.90;;;;;;5141552;27;20398;-82
2021/05/16 06:46:00;;;;;;;1.40;1.30;;;11.70;99.90;;;;;;5141991;27;20257;-81
2021/05/16 06:48:26;;;;;;;3.17;1.73;;;11.70;99.90;;;;;;5141297;27;20157;-81
2021/05/16 06:50:53;;;;;;;3.03;2.07;;;11.80;99.90;;;;;;5140654;27;20493;-81
2021/05/16 06:53:19;;;;;;;1.87;1.73;;;12.00;99.90;;;;;;5139993;27;20388;-82
2021/05/16 06:55:46;;;;;;;3.10;1.70;;;12.10;99.90;;;;;;5140311;27;20388;-81
2021/05/16 06:58:13;;;;;;;1.50;1.40;;;11.80;99.90;;;;;;5122029;27;20387;-81
2021/05/16 07:00:38;;;;;;;5.50;2.00;;;11.50;99.90;;;;;;5140183;27;20391;-81
2021/05/16 07:03:05;;;;;;;2.27;1.70;;;11.60;99.90;;;;;;5141006;27;20763;-81
2021/05/16 07:05:31;;;;;;;1.67;1.57;;;11.50;99.90;;;;;;5140370;27;20183;-84
2021/05/16 07:07:57;;;;;;;5.37;1.40;;;11.60;99.90;;;;;;5123363;27;20431;-83
2021/05/16 07:10:23;;;;;;;3.40;1.57;;;11.90;99.90;;;;;;5123043;27;20192;-83
2021/05/16 07:12:49;;;;;;;2.80;1.53;;;11.70;99.90;;;;;;5123874;27;20166;-82
2021/05/16 07:15:34;;;;;;;1.83;1.63;;;11.70;99.90;;;;;;5102558;28;20413;-82
2021/05/16 07:18:00;;;;;;;4.90;2.20;;;11.90;99.90;;;;;;5080413;28;20412;-82
2021/05/16 07:20:26;;;;;;;3.17;1.70;;;12.10;99.90;;;;;;5096072;28;20619;-82
2021/05/16 07:22:51;;;;;;;5.83;1.40;;;11.90;99.90;;;;;;5079761;28;20562;-82
2021/05/16 07:25:17;;;;;;;3.07;1.87;;;12.00;99.90;;;;;;5097616;28;20242;-82
2021/05/16 07:27:44;;;;;;;1.50;1.40;;;11.70;99.90;;;;;;5098459;28;20158;-82
2021/05/16 07:30:11;;;;;;;1.77;1.50;;;11.90;99.90;;;;;;5113610;28;20187;-82
2021/05/16 07:32:37;;;;;;;1.80;1.70;;;12.20;99.90;;;;;;5115021;28;20405;-80
2021/05/16 07:35:04;;;;;;;2.03;1.93;;;12.10;99.90;;;;;;5115761;28;20470;-82
2021/05/16 07:37:30;;;;;;;2.90;1.73;;;12.60;99.90;;;;;;5100959;28;20393;-82
2021/05/16 07:39:57;;;;;;;1.80;1.70;;;12.50;99.90;;;;;;5098278;28;20452;-82
2021/05/16 07:42:29;;;;;;;2.60;1.50;;;12.40;99.90;;;;;;5117741;28;20871;-81
2021/05/16 07:44:55;;;;;;;2.03;1.83;;;12.60;99.90;;;;;;5121654;28;20388;-83
2021/05/16 07:47:21;;;;;;;3.10;1.80;;;12.70;99.90;;;;;;5113312;28;20178;-82
2021/05/16 07:50:08;;;;;;;1.70;1.53;;;12.80;99.90;;;;;;5074801;28;20409;-83
2021/05/16 07:52:34;;;;;;;4.53;2.00;;;12.30;99.90;;;;;;5075503;28;20448;-82
2021/05/16 07:55:00;;;;;;;1.53;1.43;;;12.40;99.90;;;;;;5092584;28;20438;-82
2021/05/16 07:57:26;;;;;;;1.93;1.37;;;12.70;99.90;;;;;;5102119;28;20215;-82
2021/05/16 07:59:52;;;;;;;2.80;1.57;;;12.70;99.90;;;;;;5095887;28;20273;-82
2021/05/16 08:02:18;;;;;;;5.00;1.97;;;12.60;99.90;;;;;;5095166;28;20201;-83
2021/05/16 08:04:44;;;;;;;1.87;1.10;;;12.90;99.90;;;;;;5093387;28;20964;-82
2021/05/16 08:07:09;;;;;;;2.23;1.40;;;13.10;99.90;;;;;;5093265;28;20167;-82
2021/05/16 08:09:35;;;;;;;2.23;1.67;;;13.30;99.90;;;;;;5096765;28;20409;-82
2021/05/16 08:12:07;;;;;;;5.03;2.03;;;13.30;99.90;;;;;;5079892;28;20163;-82
2021/05/16 08:14:33;;;;;;;1.40;1.30;;;13.30;99.90;;;;;;5105682;28;20232;-82
2021/05/16 08:17:01;;;;;;;7.00;1.70;;;12.90;99.90;;;;;;5093007;28;20466;-82
2021/05/16 08:19:46;;;;;;;2.20;1.50;;;13.10;99.90;;;;;;5088236;28;20179;-82
2021/05/16 08:22:13;;;;;;;2.00;1.60;;;12.60;99.90;;;;;;5093615;28;20614;-82
2021/05/16 08:24:39;;;;;;;1.87;1.43;;;12.10;99.90;;;;;;5092069;28;20430;-81
2021/05/16 08:27:07;;;;;;;4.40;1.90;;;12.50;99.90;;;;;;5091993;28;20495;-83
2021/05/16 08:29:35;;;;;;;2.07;1.37;;;12.60;99.90;;;;;;5091827;28;20206;-81
2021/05/16 08:32:04;;;;;;;1.63;1.53;;;12.40;99.90;;;;;;5092315;28;20909;-83
2021/05/16 08:34:30;;;;;;;7.37;2.90;;;12.10;99.90;;;;;;5093938;28;20481;-82
2021/05/16 08:36:56;;;;;;;1.50;1.40;;;12.30;99.90;;;;;;5099642;28;20451;-83
2021/05/16 08:39:22;;;;;;;1.40;1.30;;;12.10;99.90;;;;;;5097286;28;20417;-82
2021/05/16 08:41:48;;;;;;;1.10;1.00;;;11.70;99.90;;;;;;5096773;28;20845;-83
2021/05/16 08:44:14;;;;;;;1.10;1.00;;;11.50;99.90;;;;;;5096208;28;20205;-82
2021/05/16 08:46:42;;;;;;;2.20;1.77;;;11.40;99.90;;;;;;5094550;28;20405;-83
2021/05/16 08:49:08;;;;;;;1.23;1.13;;;11.20;99.90;;;;;;5099431;28;20155;-82
2021/05/16 08:51:34;;;;;;;2.83;1.60;;;11.40;99.90;;;;;;5100556;28;20460;-82
2021/05/16 08:54:00;;;;;;;4.20;1.70;;;11.60;99.90;;;;;;5084510;28;20168;-82
2021/05/16 08:56:26;;;;;;;3.77;1.47;;;11.50;99.90;;;;;;5085740;28;20413;-82
2021/05/16 08:58:52;;;;;;;2.30;1.50;;;11.50;99.90;;;;;;5090080;28;20183;-82
2021/05/16 09:01:21;;;;;;;1.57;1.13;;;11.90;99.90;;;;;;5089307;28;20215;-82
2021/05/16 09:03:50;;;;;;;1.50;1.40;;;11.90;99.90;;;;;;5080780;28;20568;-82
2021/05/16 09:06:16;;;;;;;1.70;1.37;;;12.00;99.90;;;;;;5078363;28;20439;-82
2021/05/16 09:08:43;;;;;;;2.40;1.20;;;12.30;99.90;;;;;;5078100;28;20438;-82
2021/05/16 09:11:09;;;;;;;3.17;1.40;;;12.20;99.90;;;;;;5080292;28;20402;-82
2021/05/16 09:13:39;;;;;;;2.30;1.77;;;12.30;99.90;;;;;;5079892;28;20408;-82
2021/05/16 09:16:13;;;;;;;1.50;1.40;;;12.50;99.90;;;;;;5062256;28;20394;-82
2021/05/16 09:18:50;;;;;;;5.00;1.30;;;12.00;99.90;;;;;;5078339;28;20406;-82
2021/05/16 09:21:30;;;;;;;2.03;1.50;;;12.00;99.90;;;;;;5078063;28;20543;-82
2021/05/16 09:24:06;;;;;;;3.00;1.50;;;12.30;99.90;;;;;;5078138;28;20486;-83
2021/05/16 09:26:38;;;;;;;2.03;1.80;;;12.60;99.90;;;;;;5079566;28;20404;-83
2021/05/16 09:29:20;;;;;;;1.97;1.77;;;12.80;99.90;;;;;;5079563;28;20484;-83
2021/05/16 09:31:46;;;;;;;1.67;1.57;;;13.00;99.90;;;;;;5079628;28;20413;-83
2021/05/16 09:34:12;;;;;;;1.60;1.50;;;13.00;99.90;;;;;;5079521;28;20402;-82
2021/05/16 09:36:41;;;;;;;2.43;1.33;;;12.80;99.90;;;;;;5079273;28;20504;-82
2021/05/16 09:39:16;;;;;;;4.90;2.07;;;12.60;99.90;;;;;;5079013;28;20863;-82
2021/05/16 09:41:58;;;;;;;1.50;1.40;;;12.40;99.90;;;;;;5078791;28;20598;-83
2021/05/16 09:44:44;;;;;;;4.23;1.70;;;12.30;99.90;;;;;;5079362;28;20914;-82
2021/05/16 09:47:22;;;;;;;1.87;1.57;;;12.10;99.90;;;;;;5079033;28;20405;-82
2021/05/16 09:49:50;;;;;;;2.37;1.83;;;11.90;99.90;;;;;;5079484;28;20408;-82
2021/05/16 09:52:19;;;;;;;1.83;1.30;;;12.40;99.90;;;;;;5079272;28;20398;-82
2021/05/16 09:54:54;;;;;;;1.50;1.40;;;12.40;99.90;;;;;;5082497;28;20393;-83
2021/05/16 09:57:19;;;;;;;3.70;2.10;;;12.50;99.90;;;;;;5081127;28;20413;-82
2021/05/16 09:59:46;;;;;;;3.87;1.80;;;12.70;99.90;;;;;;5078519;28;20867;-82
2021/05/16 10:02:15;;;;;;;2.23;1.97;;;13.30;99.90;;;;;;5078601;28;20277;-82
2021/05/16 10:04:41;;;;;;;1.87;1.47;;;13.30;99.90;;;;;;5076607;28;20485;-82
2021/05/16 10:07:08;;;;;;;1.73;1.27;;;13.70;99.90;;;;;;5079413;28;20734;-83
2021/05/16 10:09:34;;;;;;;1.57;1.40;;;13.60;99.90;;;;;;5079096;28;20429;-83
2021/05/16 10:12:05;;;;;;;1.83;1.67;;;13.80;99.90;;;;;;5078928;28;20405;-82
2021/05/16 10:14:36;;;;;;;2.40;1.70;;;14.00;99.90;;;;;;5077979;28;20430;-82
2021/05/16 10:17:03;;;;;;;3.37;1.70;;;13.90;99.90;;;;;;5078789;28;20406;-82
2021/05/16 10:19:34;;;;;;;2.50;2.20;;;13.60;99.90;;;;;;5079067;28;20405;-82
2021/05/16 10:22:15;;;;;;;2.47;1.63;;;13.60;99.90;;;;;;5078822;28;20995;-82
2021/05/16 10:24:44;;;;;;;2.10;1.60;;;13.60;99.90;;;;;;5060969;28;20862;-82
2021/05/16 10:27:21;;;;;;;2.67;2.03;;;13.90;99.90;;;;;;5078566;28;20390;-83
2021/05/16 10:29:52;;;;;;;2.23;2.03;;;14.50;99.90;;;;;;5078653;28;20394;-82
2021/05/16 10:32:21;;;;;;;1.43;1.33;;;14.90;99.90;;;;;;5076718;28;20413;-83
2021/05/16 10:34:59;;;;;;;2.20;1.57;;;15.00;99.90;;;;;;5078840;28;20402;-83
2021/05/16 10:37:43;;;;;;;1.50;1.30;;;15.00;99.90;;;;;;5078889;28;20406;-83
2021/05/16 10:40:30;;;;;;;3.13;1.20;;;15.00;99.90;;;;;;5078165;28;20720;-82
2021/05/16 10:43:22;;;;;;;1.97;1.73;;;15.10;99.90;;;;;;5077396;28;20405;-83
2021/05/16 10:45:48;;;;;;;2.70;1.90;;;15.10;99.90;;;;;;5078798;28;20401;-83
2021/05/16 10:48:16;;;;;;;2.80;1.90;;;15.30;99.90;;;;;;5078330;28;20402;-82
2021/05/16 10:50:51;;;;;;;4.60;2.03;;;15.40;99.90;;;;;;5078402;28;20946;-83
2021/05/16 10:53:25;;;;;;;2.53;2.07;;;15.30;99.90;;;;;;5077454;28;20405;-83
2021/05/16 10:56:04;;;;;;;2.50;1.57;;;15.50;99.90;;;;;;5078255;28;20437;-83
2021/05/16 10:58:46;;;;;;;3.73;1.73;;;15.40;99.90;;;;;;5078548;28;20466;-83
2021/05/16 11:01:15;;;;;;;3.63;1.67;;;15.20;99.90;;;;;;5077427;28;20448;-82
2021/05/16 11:03:56;;;;;;;2.90;1.73;;;15.50;99.90;;;;;;5061137;28;20424;-82
2021/05/16 11:06:57;;;;;;;2.23;2.03;;;15.90;99.90;;;;;;5078591;28;20847;-82
2021/05/16 11:09:27;;;;;;;2.33;1.60;;;16.30;99.90;;;;;;5082960;28;20437;-83
2021/05/16 11:11:54;;;;;;;6.43;2.10;;;15.70;99.90;;;;;;5094474;28;20455;-82
2021/05/16 11:14:38;;;;;;;2.53;2.00;;;15.40;99.90;;;;;;5082694;28;20894;-83
2021/05/16 11:17:08;;;;;;;4.03;2.00;;;15.20;99.90;;;;;;5078957;28;20433;-82
2021/05/16 11:19:35;;;;;;;1.60;1.50;;;15.70;99.90;;;;;;5076858;28;20401;-82
2021/05/16 11:22:11;;;;;;;3.10;1.60;;;16.20;99.90;;;;;;5076934;28;20491;-82
2021/05/16 11:24:41;;;;;;;3.43;1.63;;;16.20;99.90;;;;;;5078255;28;20479;-82
2021/05/16 11:27:19;;;;;;;1.77;1.67;;;16.40;99.90;;;;;;5077905;28;20402;-82
2021/05/16 11:29:49;;;;;;;2.17;1.97;;;16.30;99.90;;;;;;5077545;28;20401;-82
2021/05/16 11:32:19;;;;;;;2.70;1.50;;;17.10;99.90;;;;;;5076876;28;20397;-82
2021/05/16 11:34:45;;;;;;;1.67;1.43;;;16.90;99.90;;;;;;5077911;28;20701;-82
2021/05/16 11:37:16;;;;;;;3.70;2.73;;;16.40;99.90;;;;;;5077614;28;20481;-82
2021/05/16 11:39:42;;;;;;;4.97;1.50;;;16.90;99.90;;;;;;5077491;28;20258;-83
2021/05/16 11:42:08;;;;;;;5.20;1.60;;;17.50;99.90;;;;;;5077116;28;20509;-83
2021/05/16 11:44:34;;;;;;;4.63;1.60;;;17.10;99.90;;;;;;5077842;28;20166;-82
2021/05/16 11:46:59;;;;;;;4.70;3.00;;;17.00;99.90;;;;;;5079337;28;20398;-82
2021/05/16 11:49:30;;;;;;;3.50;2.73;;;16.90;99.90;;;;;;5078317;28;20572;-82
2021/05/16 11:51:58;;;;;;;2.90;1.73;;;17.10;99.90;;;;;;5080139;28;20220;-82
2021/05/16 11:54:26;;;;;;;3.47;1.80;;;17.20;99.90;;;;;;5081871;28;20405;-80
2021/05/16 11:56:53;;;;;;;2.00;1.63;;;17.20;99.90;;;;;;5079637;28;20402;-82
2021/05/16 11:59:27;;;;;;;4.10;1.70;;;16.70;99.90;;;;;;5077801;28;20401;-82
2021/05/16 12:01:53;;;;;;;3.93;1.40;;;17.20;99.90;;;;;;5079376;28;20502;-82
2021/05/16 12:04:20;;;;;;;4.70;2.27;;;17.70;99.90;;;;;;5080589;28;20840;-82
2021/05/16 12:06:56;;;;;;;2.20;1.47;;;17.20;99.90;;;;;;5087881;28;20401;-82
2021/05/16 12:09:25;;;;;;;5.40;1.60;;;17.20;99.90;;;;;;5094303;28;20444;-82
2021/05/16 12:11:53;;;;;;;5.87;3.63;;;17.60;99.90;;;;;;5112633;28;20405;-82
2021/05/16 12:14:22;;;;;;;2.33;1.47;;;17.50;99.90;;;;;;5112328;28;20427;-82
2021/05/16 12:16:57;;;;;;;2.20;1.60;;;18.10;99.90;;;;;;5094718;28;20547;-82
2021/05/16 12:19:26;;;;;;;3.70;1.60;;;18.60;99.90;;;;;;5097789;28;20403;-82
2021/05/16 12:21:58;;;;;;;1.20;1.10;;;18.50;99.90;;;;;;5098020;28;20496;-82
2021/05/16 12:24:28;;;;;;;1.40;1.20;;;17.90;99.90;;;;;;5080433;28;20640;-82
2021/05/16 12:26:54;;;;;;;2.40;1.53;;;17.50;99.90;;;;;;5095592;28;20413;-82
2021/05/16 12:29:21;;;;;;;2.67;1.33;;;16.90;99.90;;;;;;5082284;28;20416;-82
2021/05/16 12:31:48;;;;;;;3.83;1.43;;;16.50;99.90;;;;;;5099515;28;20455;-82
2021/05/16 12:34:15;;;;;;;5.47;1.87;;;16.30;99.90;;;;;;5082162;28;20392;-82
2021/05/16 12:36:49;;;;;;;1.37;1.27;;;16.50;99.90;;;;;;5082379;28;20412;-82
2021/05/16 12:39:38;;;;;;;1.40;1.23;;;16.90;99.90;;;;;;5098984;28;20400;-82
2021/05/16 12:42:25;;;;;;;1.67;1.17;;;17.60;99.90;;;;;;5094805;28;20480;-83
2021/05/16 12:44:52;;;;;;;2.13;1.40;;;17.90;99.90;;;;;;5081643;28;20415;-83
2021/05/16 12:47:23;;;;;;;2.23;1.73;;;18.40;99.90;;;;;;5081670;28;20398;-83
2021/05/16 12:49:49;;;;;;;3.53;1.20;;;18.40;99.90;;;;;;5095640;28;20385;-83